Flight Track Log - Related Links

Times and Time Zones

All times are in EST time to prevent confusion due to time zone crossing. See the FFT976 flight status page for this flight to view local times or setup timezone preferences in your user account.

Time Position Orientation Groundspeed Altitude Reporting Facility
EST Latitude Longitude Course Direction KTS MPH feet Rate Location/Type
01:12PM 26.0740 -80.0940 91° East 191 220 1,800  Level FlightAware
01:12PM 26.0740 -80.0810 90° East 213 245 2,200 2,786 Climbing FlightAware
01:13PM 26.0880 -80.0390 70° East 212 244 4,400 2,786 Climbing FlightAware
01:13PM 26.1030 -80.0330 20° North 238 274 4,800 556 Climbing FlightAware
01:14PM 26.1410 -80.0560 331° Northwest 257 296 4,900  Climbing FlightAware
01:14PM 26.1760 -80.0860 322° Northwest 263 303 4,800 82 Descending FlightAware
01:15PM 26.2130 -80.1170 323° Northwest 260 299 5,000 1,235 Climbing FlightAware
01:16PM 26.2410 -80.1400 324° Northwest 268 308 6,200 2,677 Climbing FlightAware
01:16PM 26.2790 -80.1710 324° Northwest 280 322 7,900 2,954 Climbing FlightAware
01:17PM 26.3100 -80.1970 323° Northwest 282 325 9,400 2,535 Climbing FlightAware
01:17PM 26.3540 -80.2330 324° Northwest 304 350 10,900 1,575 Climbing FlightAware
01:18PM 26.4020 -80.2730 323° Northwest 348 400 11,500 943 Climbing FlightAware
01:19PM 26.4480 -80.3040 329° Northwest 386 444 12,000 1,756 Climbing FlightAware
01:19PM 26.5340 -80.3340 343° North 399 459 13,900 2,386 Climbing FlightAware
01:20PM 26.5920 -80.3550 342° North 395 455 15,300 2,235 Climbing FlightAware
01:21PM 26.7160 -80.3980 343° North 403 464 17,700 1,953 Climbing FlightAware
01:22PM 26.8240 -80.4370 342° North 410 472 19,500 1,642 Climbing FlightAware
01:23PM 26.8880 -80.4600 342° North 417 480 20,300 1,417 Climbing FlightAware
01:23PM 26.9570 -80.4840 343° North 425 489 21,200 1,459 Climbing FlightAware
01:24PM 27.0260 -80.5090 342° North 432 497 22,100 1,456 Climbing FlightAware
01:25PM 27.1510 -80.5530 343° North 439 505 23,700 1,941 Climbing FlightAware
01:26PM 27.2230 -80.5780 343° North 418 481 25,400 2,593 Climbing FlightAware
01:26PM 27.3050 -80.6080 342° North 400 460 27,200 1,824 Climbing FlightAware
01:27PM 27.4050 -80.6440 342° North 402 463 28,500 1,097 Climbing FlightAware
01:28PM 27.4690 -80.6670 342° North 415 478 28,900 609 Climbing FlightAware
01:28PM 27.5310 -80.6890 343° North 428 493 29,200 771 Climbing FlightAware
01:29PM 27.6000 -80.7140 342° North 433 498 29,800 1,216 Climbing FlightAware
01:30PM 27.6700 -80.7390 342° North 428 493 30,700 1,348 Climbing FlightAware
01:31PM 27.7690 -80.7740 343° North 428 493 31,800 1,200 Climbing FlightAware
01:31PM 27.8420 -80.8010 342° North 430 495 32,500 1,254 Climbing FlightAware
01:32PM 27.8970 -80.8210 342° North 426 490 33,200 1,241 Climbing FlightAware
01:32PM 27.9510 -80.8400 343° North 424 488 33,700 1,068 Climbing FlightAware
01:33PM 28.0300 -80.8690 342° North 423 487 34,500 750 Climbing FlightAware
01:34PM 28.1390 -80.9080 342° North 420 483 35,000 278 Climbing FlightAware
01:35PM 28.2300 -80.9410 342° North 417 480 35,000  Level FlightAware
01:36PM 28.3430 -80.9830 342° North 416 479 35,000  Level FlightAware
01:36PM 28.4150 -81.0080 343° North 412 474 35,000  Level FlightAware
01:37PM 28.5350 -81.0530 342° North 409 471 35,000  Level FlightAware
01:38PM 28.6340 -81.0890 342° North 411 473 35,000  Level FlightAware
01:39PM 28.7110 -81.1170 342° North 415 478 35,000  Level FlightAware
01:40PM 28.7890 -81.1360 348° North 421 484 35,000  Level FlightAware
01:40PM 28.8520 -81.1510 348° North 421 484 35,000  Level FlightAware
01:41PM 28.9320 -81.1700 348° North 419 482 35,000  Level FlightAware
01:42PM 29.0090 -81.1880 348° North 417 480 35,000  Level FlightAware
01:42PM 29.0790 -81.2050 348° North 415 478 35,000  Level FlightAware
01:43PM 29.1860 -81.2300 348° North 413 475 35,000  Level FlightAware
01:44PM 29.2440 -81.2440 348° North 412 474 35,000  Level FlightAware
01:44PM 29.3120 -81.2610 348° North 412 474 35,000  Level FlightAware
01:45PM 29.3630 -81.2730 348° North 412 474 35,000  Level FlightAware
01:46PM 29.4400 -81.2920 348° North 412 474 35,000  Level FlightAware
01:46PM 29.5150 -81.3090 349° North 413 475 35,000  Level FlightAware
01:47PM 29.5870 -81.3270 348° North 414 476 35,000  Level FlightAware
01:47PM 29.6480 -81.3420 348° North 413 475 35,000  Level FlightAware
01:48PM 29.7030 -81.3550 348° North 413 475 35,000  Level FlightAware
01:49PM 29.7770 -81.3730 348° North 412 474 35,000  Level FlightAware
01:49PM 29.8780 -81.3970 348° North 413 475 35,000  Level FlightAware
01:50PM 29.9840 -81.4230 348° North 413 475 35,000  Level FlightAware
01:51PM 30.0450 -81.4380 348° North 411 473 35,000  Level FlightAware
01:51PM 30.1030 -81.4520 348° North 409 471 35,000  Level FlightAware
01:52PM 30.1680 -81.4680 348° North 406 467 35,000  Level FlightAware
01:53PM 30.2410 -81.4860 348° North 403 464 35,000  Level FlightAware
01:54PM 30.3700 -81.5050 353° North 424 488 35,000  Level FlightAware
01:54PM 30.4290 -81.5030 North 435 501 35,000  Level FlightAware
01:55PM 30.5050 -81.4970 North 436 502 35,000  Level FlightAware
01:56PM 30.5720 -81.4910 North 438 504 35,000  Level FlightAware
01:56PM 30.6680 -81.4830 North 440 506 35,000  Level FlightAware
01:57PM 30.7420 -81.4770 North 440 506 35,000  Level FlightAware
01:57PM 30.8070 -81.4720 North 440 506 35,000  Level FlightAware
01:58PM 30.9220 -81.4630 North 439 505 35,000  Level FlightAware
01:59PM 30.9920 -81.4570 North 440 506 35,000  Level FlightAware
01:59PM 31.0600 -81.4520 North 439 505 35,000  Level FlightAware
02:00PM 31.1230 -81.4460 North 437 503 35,000  Level FlightAware
02:01PM 31.1880 -81.4410 North 434 499 35,000  Level FlightAware
02:02PM 31.3180 -81.4180 North 444 511 35,000  Level FlightAware
02:02PM 31.4070 -81.3950 12° North 442 509 35,000  Level FlightAware
02:03PM 31.5080 -81.3420 24° Northeast 492 566 35,000  Level FlightAware
02:04PM 31.5640 -81.2900 38° Northeast 497 572 35,000  Level FlightAware
02:04PM 31.6340 -81.2250 38° Northeast 498 573 35,000  Level FlightAware
02:05PM 31.7110 -81.1540 38° Northeast 499 574 35,000  Level FlightAware
02:06PM 31.7710 -81.0990 38° Northeast 501 577 35,000  Level FlightAware
02:06PM 31.8160 -81.0560 39° Northeast 502 578 35,000  Level FlightAware
02:07PM 31.8830 -80.9940 38° Northeast 502 578 35,000  Level FlightAware
02:07PM 31.9710 -80.9120 38° Northeast 500 575 35,000  Level FlightAware
02:08PM 32.0270 -80.8590 39° Northeast 500 575 35,000  Level FlightAware
02:09PM 32.1260 -80.7660 38° Northeast 513 590 35,000  Level FlightAware
02:10PM 32.2150 -80.6830 38° Northeast 515 593 35,000  Level FlightAware
02:10PM 32.2710 -80.6300 39° Northeast 512 589 35,000  Level FlightAware
02:11PM 32.3170 -80.5860 39° Northeast 512 589 35,000  Level FlightAware
02:11PM 32.3990 -80.5080 39° Northeast 510 587 35,000  Level FlightAware
02:12PM 32.4590 -80.4510 39° Northeast 507 583 35,000  Level FlightAware
02:13PM 32.5850 -80.3320 38° Northeast 506 582 35,000  Level FlightAware
02:14PM 32.6570 -80.2630 39° Northeast 506 582 35,000  Level FlightAware
02:14PM 32.7260 -80.1970 39° Northeast 508 585 35,000  Level FlightAware
02:15PM 32.7830 -80.1430 39° Northeast 511 588 35,000  Level FlightAware
02:15PM 32.8500 -80.0790 39° Northeast 512 589 35,000  Level FlightAware
02:16PM 32.9020 -80.0290 39° Northeast 511 588 35,000  Level FlightAware
02:17PM 32.9670 -79.9660 39° Northeast 511 588 35,000  Level FlightAware
02:18PM 33.1250 -79.8140 39° Northeast 510 587 35,000  Level FlightAware
02:19PM 33.2330 -79.7090 39° Northeast 512 589 35,000  Level FlightAware
02:20PM 33.3240 -79.6200 39° Northeast 514 592 35,000  Level FlightAware
02:21PM 33.4060 -79.5400 39° Northeast 514 592 35,000 77 Level FlightAware
02:21PM 33.4690 -79.4780 39° Northeast 511 588 35,100  Climbing FlightAware
02:22PM 33.5330 -79.4160 39° Northeast 509 586 35,000 -85 Descending FlightAware
02:22PM 33.5960 -79.3540 39° Northeast 506 582 35,000  Level FlightAware
02:23PM 33.7060 -79.2460 39° Northeast 506 582 35,000 61 Level FlightAware
02:24PM 33.7720 -79.1800 40° Northeast 502 578 35,100  Climbing FlightAware
02:25PM 33.8480 -79.1050 39° Northeast 499 574 35,000 -63 Descending FlightAware
02:26PM 33.9480 -79.0070 39° Northeast 496 571 35,000  Level FlightAware
02:26PM 34.0080 -78.9470 40° Northeast 496 571 35,000  Level FlightAware
02:27PM 34.0650 -78.8900 40° Northeast 495 570 35,000  Level FlightAware
02:27PM 34.1270 -78.8290 39° Northeast 495 570 35,000  Level FlightAware
02:28PM 34.2090 -78.7460 40° Northeast 495 570 35,000  Level FlightAware
02:29PM 34.3010 -78.6540 40° Northeast 496 571 35,000  Level FlightAware
02:30PM 34.3730 -78.5820 40° Northeast 498 573 35,000  Level FlightAware
02:30PM 34.4330 -78.5210 40° Northeast 498 573 35,000  Level FlightAware
02:31PM 34.5400 -78.4120 40° Northeast 500 575 35,000  Level FlightAware
02:32PM 34.5920 -78.3600 39° Northeast 499 574 35,000 67 Level FlightAware
02:33PM 34.6890 -78.2660 39° Northeast 489 563 35,100 61 Climbing FlightAware
02:34PM 34.7590 -78.2100 33° Northeast 479 551 35,100 -61 Level FlightAware
02:35PM 34.8780 -78.1180 32° Northeast 474 545 35,000 -63 Descending FlightAware
02:35PM 34.9270 -78.0800 32° Northeast 474 545 35,000  Level FlightAware
02:36PM 34.9790 -78.0390 33° Northeast 473 544 35,000  Level FlightAware
02:36PM 35.0840 -77.9570 33° Northeast 475 547 35,000 -474 Level FlightAware
02:37PM 35.1770 -77.8840 33° Northeast 469 540 34,400 -759 Descending FlightAware
02:38PM 35.2460 -77.8300 33° Northeast 461 531 33,900 -742 Descending FlightAware
02:38PM 35.3510 -77.7470 33° Northeast 450 518 33,200 -478 Descending FlightAware
02:39PM 35.4450 -77.6740 32° Northeast 447 514 33,000 -138 Descending FlightAware
02:40PM 35.5020 -77.6290 33° Northeast 448 516 33,000  Level FlightAware
02:41PM 35.5790 -77.5680 33° Northeast 447 514 33,000  Level FlightAware
02:41PM 35.6410 -77.5180 33° Northeast 451 519 33,000  Level FlightAware
02:42PM 35.7420 -77.4380 33° Northeast 451 519 33,000  Level FlightAware
02:43PM 35.8030 -77.3890 33° Northeast 452 520 33,000  Level FlightAware
02:44PM 35.8730 -77.3330 33° Northeast 449 517 33,000  Level FlightAware
02:44PM 35.9580 -77.2630 34° Northeast 451 519 33,000  Level FlightAware
02:45PM 36.0580 -77.1800 34° Northeast 445 512 33,000  Level FlightAware
02:46PM 36.1160 -77.1310 34° Northeast 444 511 33,000  Level FlightAware
02:46PM 36.1590 -77.0950 34° Northeast 444 511 33,000  Level FlightAware
02:47PM 36.2520 -77.0170 34° Northeast 430 495 33,000  Level FlightAware
02:48PM 36.3370 -76.9470 34° Northeast 429 494 33,000 -71 Level FlightAware
02:49PM 36.3930 -76.8990 35° Northeast 427 491 32,900 -560 Descending FlightAware
02:49PM 36.4490 -76.8520 34° Northeast 414 476 32,300 -960 Descending FlightAware
02:50PM 36.5140 -76.7980 34° Northeast 416 479 31,700 -600 Descending FlightAware
02:50PM 36.5590 -76.7600 34° Northeast 416 479 31,600 -701 Descending FlightAware
02:51PM 36.6340 -76.6970 34° Northeast 428 493 30,800 -1,417 Descending FlightAware
02:52PM 36.7000 -76.6670 20° North 419 482 29,900 -1,333 Descending FlightAware
02:52PM 36.7580 -76.6370 23° Northeast 418 481 29,400 -930 Descending FlightAware
02:53PM 36.8240 -76.6040 22° Northeast 410 472 28,800 -985 Descending FlightAware
02:53PM 36.8740 -76.5790 22° Northeast 406 467 28,300 -909 Descending FlightAware
02:54PM 36.9350 -76.5460 23° Northeast 404 465 27,800 -659 Descending FlightAware
02:55PM 37.0020 -76.4870 35° Northeast 408 470 27,400 -653 Descending FlightAware
02:56PM 37.0830 -76.4090 38° Northeast 404 465 26,700 -1,247 Descending FlightAware
02:56PM 37.1190 -76.3740 38° Northeast 402 463 25,800 -1,452 Descending FlightAware
02:57PM 37.1740 -76.3220 37° Northeast 385 443 25,200 -545 Descending FlightAware
02:57PM 37.2450 -76.2540 37° Northeast 372 428 25,000 -150 Descending FlightAware
02:58PM 37.2820 -76.2190 37° Northeast 366 421 25,000  Level FlightAware
02:58PM 37.3100 -76.1910 38° Northeast 365 420 25,000  Level FlightAware
02:59PM 37.3660 -76.1370 37° Northeast 370 426 25,000  Level FlightAware
03:00PM 37.4640 -76.0430 37° Northeast 367 422 25,000  Level FlightAware
03:01PM 37.5390 -75.9700 38° Northeast 365 420 25,000  Level FlightAware
03:02PM 37.5870 -75.9240 37° Northeast 363 418 25,000  Level FlightAware
03:02PM 37.6310 -75.8820 37° Northeast 362 417 25,000  Level FlightAware
03:03PM 37.6690 -75.8440 38° Northeast 362 417 25,000  Level FlightAware
03:04PM 37.7560 -75.7600 37° Northeast 363 418 25,000  Level FlightAware
03:04PM 37.8020 -75.7150 38° Northeast 364 419 25,000  Level FlightAware
03:05PM 37.8830 -75.6350 38° Northeast 364 419 25,000 -255 Level FlightAware
03:06PM 37.9270 -75.5920 38° Northeast 353 406 24,600 -917 Descending FlightAware
03:07PM 37.9790 -75.5400 38° Northeast 349 402 23,900 -1,000 Descending FlightAware
03:07PM 38.0130 -75.5070 37° Northeast 347 399 23,500 -842 Descending FlightAware
03:08PM 38.0460 -75.4750 37° Northeast 355 409 23,100 -966 Descending FlightAware
03:08PM 38.1330 -75.4160 28° Northeast 339 390 22,100 -966 Descending FlightAware
03:09PM 38.1720 -75.3920 26° Northeast 343 395 21,700 -909 Descending FlightAware
03:10PM 38.2260 -75.3580 26° Northeast 341 392 21,100 -1,082 Descending FlightAware
03:10PM 38.2600 -75.3360 27° Northeast 339 390 20,600 -1,029 Descending FlightAware
03:11PM 38.3220 -75.2970 26° Northeast 338 389 19,900 -982 Descending FlightAware
03:12PM 38.4190 -75.2350 27° Northeast 329 379 18,800 -990 Descending FlightAware
03:12PM 38.4590 -75.2090 27° Northeast 325 374 18,300 -930 Descending FlightAware
03:13PM 38.5170 -75.1730 26° Northeast 328 377 17,700 -1,268 Descending FlightAware
03:14PM 38.5560 -75.1480 27° Northeast 323 372 16,800 -1,800 Descending FlightAware
03:14PM 38.5980 -75.1210 27° Northeast 326 375 15,900 -1,932 Descending FlightAware
03:15PM 38.6390 -75.0950 26° Northeast 321 369 14,900 -1,043 Descending FlightAware
03:15PM 38.6900 -75.0620 27° Northeast 322 371 14,700 -114 Descending FlightAware
03:16PM 38.7780 -75.0060 26° Northeast 321 369 14,700  Level FlightAware
03:17PM 38.8550 -74.9560 27° Northeast 313 360 14,700  Level FlightAware
03:18PM 38.8960 -74.9300 26° Northeast 321 369 14,700  Level FlightAware
03:19PM 38.9770 -74.8770 27° Northeast 318 366 14,700  Level FlightAware
03:20PM 39.0400 -74.8370 26° Northeast 319 367 14,700 -150 Level FlightAware
03:20PM 39.0820 -74.8110 26° Northeast 303 349 14,500 -706 Descending FlightAware
03:21PM 39.1270 -74.8130 358° North 275 316 13,900 -1,029 Descending FlightAware
03:21PM 39.1680 -74.8280 344° North 254 292 13,300 -909 Descending FlightAware
03:22PM 39.2050 -74.8420 344° North 248 285 12,900 -806 Descending FlightAware
03:22PM 39.2420 -74.8550 345° North 250 288 12,400 -742 Descending FlightAware
03:23PM 39.3140 -74.8820 344° North 252 290 11,700 -680 Descending FlightAware
03:24PM 39.3510 -74.8960 344° North 252 290 11,300 -656 Descending FlightAware
03:24PM 39.3850 -74.9090 344° North 254 292 11,000 -716 Descending FlightAware
03:25PM 39.4270 -74.9250 344° North 254 292 10,500 -720 Descending FlightAware
03:26PM 39.4680 -74.9410 343° North 251 289 10,100 -609 Descending FlightAware
03:26PM 39.5050 -74.9550 344° North 250 288 9,800 -387 Descending FlightAware
03:27PM 39.5380 -74.9650 347° North 250 288 9,700 -100 Descending FlightAware
03:27PM 39.5650 -74.9580 11° North 251 289 9,700  Level FlightAware
03:28PM 39.6050 -74.9450 14° North 247 284 9,700  Level FlightAware
03:28PM 39.6490 -74.9310 14° North 248 285 9,700  Level FlightAware
03:29PM 39.6830 -74.9200 14° North 250 288 9,700 -469 Level FlightAware
03:30PM 39.7210 -74.9070 15° North 250 288 9,200 -957 Descending FlightAware
03:30PM 39.7610 -74.8940 14° North 253 291 8,600 -1,000 Descending FlightAware
03:31PM 39.8020 -74.8810 14° North 251 289 8,000 -740 Descending FlightAware
03:31PM 39.8430 -74.8670 15° North 253 291 7,700 -321 Descending FlightAware
03:32PM 39.8660 -74.8600 13° North 248 285 7,700  Level FlightAware
03:32PM 39.9100 -74.8450 15° North 251 289 7,700 -480 Level FlightAware
03:33PM 39.9460 -74.8340 13° North 238 274 7,100 -1,543 Descending FlightAware
03:33PM 39.9890 -74.8190 15° North 247 284 5,900 -1,704 Descending FlightAware
03:34PM 40.0400 -74.8020 14° North 233 268 4,800 -1,371 Descending FlightAware
03:35PM 40.0650 -74.7940 14° North 218 251 4,300 -941 Descending FlightAware
03:35PM 40.0900 -74.7860 14° North 207 238 4,000 -655 Descending FlightAware
03:36PM 40.1140 -74.7710 26° Northeast 191 220 3,700 -610 Descending FlightAware
03:36PM 40.1380 -74.7550 27° Northeast 178 205 3,400 -787 Descending FlightAware
03:37PM 40.1600 -74.7410 26° Northeast 171 197 2,900 -1,000 Descending FlightAware
03:37PM 40.1770 -74.7340 17° North 162 186 2,500 -1,279 Descending FlightAware
03:38PM 40.2020 -74.7460 340° North 162 186 1,600 -1,216 Descending FlightAware
03:38PM 40.2240 -74.7650 327° Northwest 149 171 1,000 -857 Descending FlightAware
03:39PM 40.2380 -74.7770 327° Northwest 144 166 700 -353 Descending FlightAware
03:39PM 40.2500 -74.7870 328° Northwest 144 166 700  Level FlightAware

Login

Don't have an account? Register now (free) for customized features, flight alerts, and more!